Terminal Aerodrome Forecast
Issued by NWS

Home | Current Version | Previous Version | Text Only | Print | Product List | Glossary On
Versions: 1 2 3 4 5 6 7 8 9 10 11 12 13 14 15 16 17 18 19 20 21 22 23 24 25 26 27
000
FTUS41 KRLX 182339
TAFCKB
TAF
KCKB 182339Z 1900/1924 00000KT P6SM OVC020
     FM190200 00000KT P6SM OVC015
     FM191600 VRB03KT P6SM BKN020
     FM191900 VRB03KT P6SM SCT025
     FM192200 VRB03KT P6SM FEW250=

USA.gov is the U.S. government's official web portal to all federal, state and local government web resources and services.